Back to top

Casper, Wyoming Weather

Natrona County International Airport, Casper, WY: 7/23/2019 07:53
Visibility10 statute milesclear sky
View 7-Day Forecast
Area Summary
Sky/CloudsSky Clear
Weather [last 24 hours]None [rain began 19:43, thunderstorm began 19:51; thunderstorm ended 20:29; rain ended 21:02 ]
Pressure30.31 in.Hg (1027 hPa)
Dew Point52 °F (11.1 °C)
Relative Humidity62.9 %
Last 24-Hour Precip.0.17 in. (4.318 mm)
Reading TimePrecipitation
6-hr ending 7/22@23:530.17 in. (4.318 mm)
24-hr ending 7/23@05:530.17 in. (4.318 mm)
Temperature64.9 °F (18.3 °C)red thermometer
Reading TimeMinimum to Maximum Temperature
6-hr ending 7/23@05:5354 °F to 63 °F (12.2 °C to 17.2 °C)
6-hr ending 7/22@23:5362.1 °F to 82.9 °F (16.7 °C to 28.3 °C)
6-hr ending 7/22@17:5380.1 °F to 90 °F (26.7 °C to 32.2 °C)
6-hr ending 7/22@11:5355 °F to 80.1 °F (12.8 °C to 26.7 °C)
24-hr ending 7/23@00:5355 °F to 90 °F (12.8 °C to 32.2 °C)
Wind10.4 MPH (9 KT) green arrow pointing 225 degrees
Wind FromSouthwest (230 Degrees)
Rolling 24-hr Peak Wind36.8 MPH (32 KT) on 7/22@19:43
Rolling 24-hr Peak Wind FromSouthwest (230 Degrees)
Twilight Begins05:15Sunshine Yesterday
Sunrise05:49N/A
Sunset20:36
Twilight Ends21:09
METARKCPR 231353Z 23009KT 10SM CLR 18/11 A3031 RMK AO2 SLP206 T01830111